sensor_id;sensor_type;location;lat;lon;timestamp;P1;durP1;ratioP1;P2;durP2;ratioP2
73672;SDS011;61972;19.480;-99.240;2023-02-01T00:00:20;8.80;;;4.73;;
73672;SDS011;61972;19.480;-99.240;2023-02-01T00:02:47;9.32;;;4.53;;
73672;SDS011;61972;19.480;-99.240;2023-02-01T00:05:13;8.10;;;4.20;;
73672;SDS011;61972;19.480;-99.240;2023-02-01T00:07:39;7.68;;;4.38;;
73672;SDS011;61972;19.480;-99.240;2023-02-01T00:10:05;7.95;;;4.53;;
73672;SDS011;61972;19.480;-99.240;2023-02-01T00:12:32;9.07;;;4.40;;
73672;SDS011;61972;19.480;-99.240;2023-02-01T00:14:58;7.15;;;4.25;;
73672;SDS011;61972;19.480;-99.240;2023-02-01T00:17:25;7.82;;;4.28;;
73672;SDS011;61972;19.480;-99.240;2023-02-01T00:19:51;7.32;;;4.32;;
73672;SDS011;61972;19.480;-99.240;2023-02-01T00:22:17;8.35;;;4.00;;
73672;SDS011;61972;19.480;-99.240;2023-02-01T00:24:43;6.50;;;4.47;;
73672;SDS011;61972;19.480;-99.240;2023-02-01T00:27:11;6.53;;;4.20;;
73672;SDS011;61972;19.480;-99.240;2023-02-01T00:29:43;9.52;;;4.53;;
73672;SDS011;61972;19.480;-99.240;2023-02-01T00:32:10;8.13;;;4.68;;
73672;SDS011;61972;19.480;-99.240;2023-02-01T00:34:36;7.88;;;4.43;;
73672;SDS011;61972;19.480;-99.240;2023-02-01T00:37:02;7.07;;;4.37;;
73672;SDS011;61972;19.480;-99.240;2023-02-01T00:39:28;6.72;;;4.28;;
73672;SDS011;61972;19.480;-99.240;2023-02-01T00:41:54;7.70;;;4.03;;
73672;SDS011;61972;19.480;-99.240;2023-02-01T00:44:20;7.15;;;4.25;;
73672;SDS011;61972;19.480;-99.240;2023-02-01T00:46:46;5.88;;;4.00;;
73672;SDS011;61972;19.480;-99.240;2023-02-01T00:49:12;5.70;;;4.10;;
73672;SDS011;61972;19.480;-99.240;2023-02-01T00:51:38;7.50;;;4.05;;
73672;SDS011;61972;19.480;-99.240;2023-02-01T00:54:04;5.82;;;3.85;;
73672;SDS011;61972;19.480;-99.240;2023-02-01T00:56:30;13.38;;;3.75;;
73672;SDS011;61972;19.480;-99.240;2023-02-01T00:58:57;11.00;;;3.70;;
73672;SDS011;61972;19.480;-99.240;2023-02-01T01:01:24;5.73;;;3.73;;
73672;SDS011;61972;19.480;-99.240;2023-02-01T01:03:53;6.47;;;3.60;;
73672;SDS011;61972;19.480;-99.240;2023-02-01T01:06:31;8.35;;;3.55;;
73672;SDS011;61972;19.480;-99.240;2023-02-01T01:08:59;5.50;;;3.83;;
73672;SDS011;61972;19.480;-99.240;2023-02-01T01:11:29;6.03;;;3.85;;
73672;SDS011;61972;19.480;-99.240;2023-02-01T01:13:57;5.50;;;3.80;;
73672;SDS011;61972;19.480;-99.240;2023-02-01T01:16:25;6.20;;;3.80;;
73672;SDS011;61972;19.480;-99.240;2023-02-01T01:18:52;6.30;;;3.67;;
73672;SDS011;61972;19.480;-99.240;2023-02-01T01:21:19;6.20;;;3.80;;
73672;SDS011;61972;19.480;-99.240;2023-02-01T01:23:46;6.07;;;4.10;;
73672;SDS011;61972;19.480;-99.240;2023-02-01T01:26:17;7.70;;;3.70;;
73672;SDS011;61972;19.480;-99.240;2023-02-01T01:28:44;5.80;;;3.72;;
73672;SDS011;61972;19.480;-99.240;2023-02-01T01:31:11;5.80;;;3.67;;
73672;SDS011;61972;19.480;-99.240;2023-02-01T01:33:38;6.55;;;3.90;;
73672;SDS011;61972;19.480;-99.240;2023-02-01T01:36:05;6.28;;;3.88;;
73672;SDS011;61972;19.480;-99.240;2023-02-01T01:38:38;6.30;;;3.73;;
73672;SDS011;61972;19.480;-99.240;2023-02-01T01:41:05;5.82;;;3.70;;
73672;SDS011;61972;19.480;-99.240;2023-02-01T01:46:24;7.75;;;3.95;;
73672;SDS011;61972;19.480;-99.240;2023-02-01T01:48:54;6.68;;;4.10;;
73672;SDS011;61972;19.480;-99.240;2023-02-01T01:51:26;6.57;;;4.10;;
73672;SDS011;61972;19.480;-99.240;2023-02-01T01:54:29;7.50;;;3.42;;
73672;SDS011;61972;19.480;-99.240;2023-02-01T01:56:50;5.88;;;4.00;;
73672;SDS011;61972;19.480;-99.240;2023-02-01T01:59:22;6.80;;;3.92;;
73672;SDS011;61972;19.480;-99.240;2023-02-01T02:01:49;8.85;;;4.35;;
73672;SDS011;61972;19.480;-99.240;2023-02-01T02:04:16;6.60;;;3.93;;
73672;SDS011;61972;19.480;-99.240;2023-02-01T02:09:30;6.72;;;3.95;;
73672;SDS011;61972;19.480;-99.240;2023-02-01T02:11:56;7.57;;;4.50;;
73672;SDS011;61972;19.480;-99.240;2023-02-01T02:14:23;7.90;;;4.30;;
73672;SDS011;61972;19.480;-99.240;2023-02-01T02:17:01;7.10;;;4.10;;
73672;SDS011;61972;19.480;-99.240;2023-02-01T02:37:05;8.95;;;4.57;;
73672;SDS011;61972;19.480;-99.240;2023-02-01T02:40:01;7.40;;;4.68;;
73672;SDS011;61972;19.480;-99.240;2023-02-01T02:42:36;8.57;;;5.22;;
73672;SDS011;61972;19.480;-99.240;2023-02-01T02:45:28;9.80;;;5.20;;
73672;SDS011;61972;19.480;-99.240;2023-02-01T02:50:54;9.40;;;5.07;;
73672;SDS011;61972;19.480;-99.240;2023-02-01T02:56:53;11.02;;;5.40;;
73672;SDS011;61972;19.480;-99.240;2023-02-01T02:59:40;8.57;;;5.10;;
73672;SDS011;61972;19.480;-99.240;2023-02-01T03:02:27;10.20;;;5.30;;
73672;SDS011;61972;19.480;-99.240;2023-02-01T03:05:13;9.75;;;5.20;;
73672;SDS011;61972;19.480;-99.240;2023-02-01T03:10:13;11.57;;;5.93;;
73672;SDS011;61972;19.480;-99.240;2023-02-01T03:12:53;8.13;;;5.30;;
73672;SDS011;61972;19.480;-99.240;2023-02-01T03:15:26;8.68;;;5.85;;
73672;SDS011;61972;19.480;-99.240;2023-02-01T03:18:10;9.98;;;5.88;;
73672;SDS011;61972;19.480;-99.240;2023-02-01T03:20:52;9.98;;;5.63;;
73672;SDS011;61972;19.480;-99.240;2023-02-01T03:23:21;10.57;;;5.90;;
73672;SDS011;61972;19.480;-99.240;2023-02-01T03:25:50;10.47;;;5.90;;
73672;SDS011;61972;19.480;-99.240;2023-02-01T03:28:19;12.50;;;5.90;;
73672;SDS011;61972;19.480;-99.240;2023-02-01T03:30:48;10.60;;;6.28;;
73672;SDS011;61972;19.480;-99.240;2023-02-01T03:33:16;10.68;;;6.28;;
73672;SDS011;61972;19.480;-99.240;2023-02-01T03:35:55;12.70;;;6.03;;
73672;SDS011;61972;19.480;-99.240;2023-02-01T03:41:23;12.80;;;6.03;;
73672;SDS011;61972;19.480;-99.240;2023-02-01T03:44:06;9.90;;;6.78;;
73672;SDS011;61972;19.480;-99.240;2023-02-01T03:46:39;11.57;;;6.57;;
73672;SDS011;61972;19.480;-99.240;2023-02-01T03:49:29;10.43;;;6.28;;
73672;SDS011;61972;19.480;-99.240;2023-02-01T03:52:00;13.03;;;6.63;;
73672;SDS011;61972;19.480;-99.240;2023-02-01T03:54:28;14.15;;;6.72;;
73672;SDS011;61972;19.480;-99.240;2023-02-01T03:56:56;12.80;;;6.30;;
73672;SDS011;61972;19.480;-99.240;2023-02-01T03:59:26;10.77;;;6.38;;
73672;SDS011;61972;19.480;-99.240;2023-02-01T04:01:52;9.43;;;6.32;;
73672;SDS011;61972;19.480;-99.240;2023-02-01T04:04:18;8.57;;;6.10;;
73672;SDS011;61972;19.480;-99.240;2023-02-01T04:06:51;9.50;;;6.40;;
73672;SDS011;61972;19.480;-99.240;2023-02-01T04:09:17;9.18;;;6.20;;
73672;SDS011;61972;19.480;-99.240;2023-02-01T04:11:43;13.18;;;7.03;;
73672;SDS011;61972;19.480;-99.240;2023-02-01T04:14:09;9.43;;;6.90;;
73672;SDS011;61972;19.480;-99.240;2023-02-01T04:16:35;10.57;;;6.60;;
73672;SDS011;61972;19.480;-99.240;2023-02-01T04:19:02;8.88;;;6.70;;
73672;SDS011;61972;19.480;-99.240;2023-02-01T04:21:28;9.75;;;6.65;;
73672;SDS011;61972;19.480;-99.240;2023-02-01T04:23:54;12.00;;;6.60;;
73672;SDS011;61972;19.480;-99.240;2023-02-01T04:26:20;12.68;;;6.05;;
73672;SDS011;61972;19.480;-99.240;2023-02-01T04:28:47;9.50;;;6.53;;
73672;SDS011;61972;19.480;-99.240;2023-02-01T04:31:14;13.48;;;6.82;;
73672;SDS011;61972;19.480;-99.240;2023-02-01T04:33:40;9.38;;;6.45;;
73672;SDS011;61972;19.480;-99.240;2023-02-01T04:36:06;9.75;;;6.15;;
73672;SDS011;61972;19.480;-99.240;2023-02-01T04:38:33;9.18;;;6.50;;
73672;SDS011;61972;19.480;-99.240;2023-02-01T04:40:59;13.03;;;7.00;;
73672;SDS011;61972;19.480;-99.240;2023-02-01T04:43:25;12.75;;;7.60;;
73672;SDS011;61972;19.480;-99.240;2023-02-01T04:45:52;10.10;;;6.90;;
73672;SDS011;61972;19.480;-99.240;2023-02-01T04:48:19;10.10;;;6.93;;
73672;SDS011;61972;19.480;-99.240;2023-02-01T04:50:46;10.68;;;6.60;;
73672;SDS011;61972;19.480;-99.240;2023-02-01T04:53:14;11.33;;;6.33;;
73672;SDS011;61972;19.480;-99.240;2023-02-01T04:55:41;9.60;;;6.82;;
73672;SDS011;61972;19.480;-99.240;2023-02-01T04:58:08;13.20;;;7.25;;
73672;SDS011;61972;19.480;-99.240;2023-02-01T05:00:34;11.05;;;6.90;;
73672;SDS011;61972;19.480;-99.240;2023-02-01T05:03:00;10.23;;;6.78;;
73672;SDS011;61972;19.480;-99.240;2023-02-01T05:05:27;9.20;;;6.67;;
73672;SDS011;61972;19.480;-99.240;2023-02-01T05:07:53;12.20;;;6.65;;
73672;SDS011;61972;19.480;-99.240;2023-02-01T05:10:20;13.98;;;6.70;;
73672;SDS011;61972;19.480;-99.240;2023-02-01T05:12:47;10.98;;;7.35;;
73672;SDS011;61972;19.480;-99.240;2023-02-01T05:15:31;11.07;;;6.72;;
73672;SDS011;61972;19.480;-99.240;2023-02-01T05:17:58;11.47;;;7.40;;
73672;SDS011;61972;19.480;-99.240;2023-02-01T05:20:24;11.93;;;7.03;;
73672;SDS011;61972;19.480;-99.240;2023-02-01T05:22:50;12.32;;;6.50;;
73672;SDS011;61972;19.480;-99.240;2023-02-01T05:25:16;11.23;;;6.88;;
73672;SDS011;61972;19.480;-99.240;2023-02-01T05:27:42;11.35;;;6.68;;
73672;SDS011;61972;19.480;-99.240;2023-02-01T05:30:09;12.47;;;7.03;;
73672;SDS011;61972;19.480;-99.240;2023-02-01T05:32:35;11.02;;;7.00;;
73672;SDS011;61972;19.480;-99.240;2023-02-01T05:35:01;13.00;;;7.10;;
73672;SDS011;61972;19.480;-99.240;2023-02-01T05:37:28;13.65;;;7.00;;
73672;SDS011;61972;19.480;-99.240;2023-02-01T05:39:54;11.55;;;6.53;;
73672;SDS011;61972;19.480;-99.240;2023-02-01T05:42:20;11.17;;;6.40;;
73672;SDS011;61972;19.480;-99.240;2023-02-01T05:44:46;11.02;;;6.75;;
73672;SDS011;61972;19.480;-99.240;2023-02-01T05:47:12;11.52;;;6.50;;
73672;SDS011;61972;19.480;-99.240;2023-02-01T05:49:38;10.55;;;6.68;;
73672;SDS011;61972;19.480;-99.240;2023-02-01T05:52:05;10.20;;;6.70;;
73672;SDS011;61972;19.480;-99.240;2023-02-01T05:54:31;14.97;;;6.97;;
73672;SDS011;61972;19.480;-99.240;2023-02-01T05:56:57;10.55;;;6.50;;
73672;SDS011;61972;19.480;-99.240;2023-02-01T05:59:23;10.95;;;6.55;;
73672;SDS011;61972;19.480;-99.240;2023-02-01T06:01:49;11.05;;;6.88;;
73672;SDS011;61972;19.480;-99.240;2023-02-01T06:04:15;12.15;;;6.88;;
73672;SDS011;61972;19.480;-99.240;2023-02-01T06:06:41;13.67;;;7.13;;
73672;SDS011;61972;19.480;-99.240;2023-02-01T06:09:08;10.63;;;6.57;;
73672;SDS011;61972;19.480;-99.240;2023-02-01T06:11:34;12.57;;;7.05;;
73672;SDS011;61972;19.480;-99.240;2023-02-01T06:14:00;11.68;;;7.05;;
73672;SDS011;61972;19.480;-99.240;2023-02-01T06:16:26;11.55;;;7.00;;
73672;SDS011;61972;19.480;-99.240;2023-02-01T06:18:52;9.93;;;6.97;;
73672;SDS011;61972;19.480;-99.240;2023-02-01T06:21:19;12.65;;;7.57;;
73672;SDS011;61972;19.480;-99.240;2023-02-01T06:23:51;13.90;;;7.63;;
73672;SDS011;61972;19.480;-99.240;2023-02-01T06:26:18;11.63;;;7.05;;
73672;SDS011;61972;19.480;-99.240;2023-02-01T06:28:45;13.85;;;7.20;;
73672;SDS011;61972;19.480;-99.240;2023-02-01T06:31:11;14.97;;;7.27;;
73672;SDS011;61972;19.480;-99.240;2023-02-01T06:33:37;14.75;;;7.50;;
73672;SDS011;61972;19.480;-99.240;2023-02-01T06:36:05;11.00;;;7.30;;
73672;SDS011;61972;19.480;-99.240;2023-02-01T06:38:33;11.93;;;6.95;;
73672;SDS011;61972;19.480;-99.240;2023-02-01T06:41:02;12.38;;;7.38;;
73672;SDS011;61972;19.480;-99.240;2023-02-01T06:43:29;11.47;;;7.37;;
73672;SDS011;61972;19.480;-99.240;2023-02-01T06:46:03;10.52;;;7.40;;
73672;SDS011;61972;19.480;-99.240;2023-02-01T06:48:33;10.65;;;6.97;;
73672;SDS011;61972;19.480;-99.240;2023-02-01T06:51:00;11.20;;;7.60;;
73672;SDS011;61972;19.480;-99.240;2023-02-01T06:53:26;11.55;;;7.15;;
73672;SDS011;61972;19.480;-99.240;2023-02-01T06:55:56;11.47;;;6.67;;
73672;SDS011;61972;19.480;-99.240;2023-02-01T06:58:32;11.57;;;7.57;;
73672;SDS011;61972;19.480;-99.240;2023-02-01T07:01:05;11.05;;;7.32;;
73672;SDS011;61972;19.480;-99.240;2023-02-01T07:03:32;13.02;;;8.00;;
73672;SDS011;61972;19.480;-99.240;2023-02-01T07:05:58;11.38;;;7.28;;
73672;SDS011;61972;19.480;-99.240;2023-02-01T07:08:26;10.63;;;7.47;;
73672;SDS011;61972;19.480;-99.240;2023-02-01T07:10:53;10.55;;;7.22;;
73672;SDS011;61972;19.480;-99.240;2023-02-01T07:13:19;12.55;;;7.32;;
73672;SDS011;61972;19.480;-99.240;2023-02-01T07:15:45;11.93;;;7.10;;
73672;SDS011;61972;19.480;-99.240;2023-02-01T07:18:13;9.73;;;7.25;;
73672;SDS011;61972;19.480;-99.240;2023-02-01T07:20:40;11.63;;;8.07;;
73672;SDS011;61972;19.480;-99.240;2023-02-01T07:23:07;15.25;;;7.85;;
73672;SDS011;61972;19.480;-99.240;2023-02-01T07:25:36;11.45;;;7.63;;
73672;SDS011;61972;19.480;-99.240;2023-02-01T07:28:03;10.10;;;7.15;;
73672;SDS011;61972;19.480;-99.240;2023-02-01T07:30:29;11.50;;;7.45;;
73672;SDS011;61972;19.480;-99.240;2023-02-01T07:32:55;11.93;;;8.00;;
73672;SDS011;61972;19.480;-99.240;2023-02-01T07:35:24;12.82;;;8.07;;
73672;SDS011;61972;19.480;-99.240;2023-02-01T07:37:50;12.40;;;7.57;;
73672;SDS011;61972;19.480;-99.240;2023-02-01T07:40:16;12.95;;;7.57;;
73672;SDS011;61972;19.480;-99.240;2023-02-01T07:42:43;10.48;;;7.78;;
73672;SDS011;61972;19.480;-99.240;2023-02-01T07:45:09;14.07;;;8.40;;
73672;SDS011;61972;19.480;-99.240;2023-02-01T07:47:35;14.40;;;7.40;;
73672;SDS011;61972;19.480;-99.240;2023-02-01T07:50:02;14.30;;;7.55;;
73672;SDS011;61972;19.480;-99.240;2023-02-01T07:52:28;13.30;;;7.80;;
73672;SDS011;61972;19.480;-99.240;2023-02-01T07:54:54;12.73;;;7.28;;
73672;SDS011;61972;19.480;-99.240;2023-02-01T07:57:20;14.27;;;7.77;;
73672;SDS011;61972;19.480;-99.240;2023-02-01T07:59:47;11.43;;;7.40;;
73672;SDS011;61972;19.480;-99.240;2023-02-01T08:02:31;12.45;;;8.20;;
73672;SDS011;61972;19.480;-99.240;2023-02-01T08:04:57;12.00;;;7.78;;
73672;SDS011;61972;19.480;-99.240;2023-02-01T08:07:23;13.55;;;7.38;;
73672;SDS011;61972;19.480;-99.240;2023-02-01T08:09:49;12.20;;;7.83;;
73672;SDS011;61972;19.480;-99.240;2023-02-01T08:12:15;14.25;;;7.72;;
73672;SDS011;61972;19.480;-99.240;2023-02-01T08:14:41;13.90;;;8.27;;
73672;SDS011;61972;19.480;-99.240;2023-02-01T08:17:07;13.73;;;8.25;;
73672;SDS011;61972;19.480;-99.240;2023-02-01T08:19:34;11.20;;;7.80;;
73672;SDS011;61972;19.480;-99.240;2023-02-01T08:22:00;12.63;;;7.53;;
73672;SDS011;61972;19.480;-99.240;2023-02-01T08:24:31;14.32;;;7.57;;
73672;SDS011;61972;19.480;-99.240;2023-02-01T08:26:57;15.50;;;8.02;;
73672;SDS011;61972;19.480;-99.240;2023-02-01T08:29:23;11.90;;;7.32;;
73672;SDS011;61972;19.480;-99.240;2023-02-01T08:31:49;12.70;;;7.15;;
73672;SDS011;61972;19.480;-99.240;2023-02-01T08:34:16;14.23;;;7.50;;
73672;SDS011;61972;19.480;-99.240;2023-02-01T08:36:42;10.90;;;6.82;;
73672;SDS011;61972;19.480;-99.240;2023-02-01T08:39:08;11.10;;;7.80;;
73672;SDS011;61972;19.480;-99.240;2023-02-01T08:41:36;11.60;;;6.93;;
73672;SDS011;61972;19.480;-99.240;2023-02-01T08:44:02;11.52;;;7.35;;
73672;SDS011;61972;19.480;-99.240;2023-02-01T08:46:29;10.73;;;7.10;;
73672;SDS011;61972;19.480;-99.240;2023-02-01T08:48:55;11.02;;;6.50;;
73672;SDS011;61972;19.480;-99.240;2023-02-01T08:51:22;10.30;;;7.25;;
73672;SDS011;61972;19.480;-99.240;2023-02-01T08:53:48;11.68;;;6.80;;
73672;SDS011;61972;19.480;-99.240;2023-02-01T08:56:16;9.75;;;6.55;;
73672;SDS011;61972;19.480;-99.240;2023-02-01T08:58:43;10.23;;;6.80;;
73672;SDS011;61972;19.480;-99.240;2023-02-01T09:01:10;11.93;;;6.50;;
73672;SDS011;61972;19.480;-99.240;2023-02-01T09:03:39;14.18;;;7.20;;
73672;SDS011;61972;19.480;-99.240;2023-02-01T09:06:06;9.20;;;6.40;;
73672;SDS011;61972;19.480;-99.240;2023-02-01T09:08:34;10.68;;;6.60;;
73672;SDS011;61972;19.480;-99.240;2023-02-01T09:11:02;9.00;;;6.50;;
73672;SDS011;61972;19.480;-99.240;2023-02-01T09:13:33;11.48;;;6.95;;
73672;SDS011;61972;19.480;-99.240;2023-02-01T09:16:00;9.30;;;6.53;;
73672;SDS011;61972;19.480;-99.240;2023-02-01T09:18:26;10.55;;;6.50;;
73672;SDS011;61972;19.480;-99.240;2023-02-01T09:20:52;9.50;;;6.17;;
73672;SDS011;61972;19.480;-99.240;2023-02-01T09:23:18;9.52;;;6.10;;
73672;SDS011;61972;19.480;-99.240;2023-02-01T09:25:47;9.68;;;6.53;;
73672;SDS011;61972;19.480;-99.240;2023-02-01T09:28:17;9.25;;;6.30;;
73672;SDS011;61972;19.480;-99.240;2023-02-01T09:30:44;10.27;;;6.63;;
73672;SDS011;61972;19.480;-99.240;2023-02-01T09:33:10;10.10;;;6.20;;
73672;SDS011;61972;19.480;-99.240;2023-02-01T09:35:36;10.85;;;6.55;;
73672;SDS011;61972;19.480;-99.240;2023-02-01T09:38:03;8.20;;;6.00;;
73672;SDS011;61972;19.480;-99.240;2023-02-01T09:40:29;9.30;;;6.47;;
73672;SDS011;61972;19.480;-99.240;2023-02-01T09:46:00;9.70;;;6.17;;
73672;SDS011;61972;19.480;-99.240;2023-02-01T09:48:47;8.55;;;6.10;;
73672;SDS011;61972;19.480;-99.240;2023-02-01T09:51:29;8.48;;;5.97;;
73672;SDS011;61972;19.480;-99.240;2023-02-01T09:56:48;8.60;;;6.07;;
73672;SDS011;61972;19.480;-99.240;2023-02-01T09:59:33;8.00;;;5.90;;
73672;SDS011;61972;19.480;-99.240;2023-02-01T10:02:00;8.90;;;5.75;;
73672;SDS011;61972;19.480;-99.240;2023-02-01T10:04:28;8.93;;;5.60;;
73672;SDS011;61972;19.480;-99.240;2023-02-01T10:09:33;8.75;;;5.80;;
73672;SDS011;61972;19.480;-99.240;2023-02-01T10:29:41;7.22;;;5.32;;
73672;SDS011;61972;19.480;-99.240;2023-02-01T10:32:16;7.60;;;5.43;;
73672;SDS011;61972;19.480;-99.240;2023-02-01T10:34:48;7.53;;;5.50;;
73672;SDS011;61972;19.480;-99.240;2023-02-01T10:37:31;7.38;;;5.30;;
73672;SDS011;61972;19.480;-99.240;2023-02-01T10:40:20;7.30;;;5.10;;
73672;SDS011;61972;19.480;-99.240;2023-02-01T10:42:51;8.38;;;5.32;;
73672;SDS011;61972;19.480;-99.240;2023-02-01T10:45:25;7.28;;;5.50;;
73672;SDS011;61972;19.480;-99.240;2023-02-01T10:47:53;7.05;;;5.15;;
73672;SDS011;61972;19.480;-99.240;2023-02-01T10:50:35;8.00;;;5.15;;
73672;SDS011;61972;19.480;-99.240;2023-02-01T10:53:12;7.03;;;5.13;;
73672;SDS011;61972;19.480;-99.240;2023-02-01T10:58:18;7.93;;;5.40;;
73672;SDS011;61972;19.480;-99.240;2023-02-01T11:00:59;9.05;;;5.07;;
73672;SDS011;61972;19.480;-99.240;2023-02-01T11:06:30;6.80;;;4.83;;
73672;SDS011;61972;19.480;-99.240;2023-02-01T11:11:53;7.18;;;4.75;;
73672;SDS011;61972;19.480;-99.240;2023-02-01T11:16:52;6.90;;;4.97;;
73672;SDS011;61972;19.480;-99.240;2023-02-01T11:19:20;6.07;;;4.60;;
73672;SDS011;61972;19.480;-99.240;2023-02-01T11:21:53;6.60;;;4.60;;
73672;SDS011;61972;19.480;-99.240;2023-02-01T11:24:23;6.82;;;4.80;;
73672;SDS011;61972;19.480;-99.240;2023-02-01T11:26:58;8.75;;;4.70;;
73672;SDS011;61972;19.480;-99.240;2023-02-01T11:29:29;7.70;;;4.70;;
73672;SDS011;61972;19.480;-99.240;2023-02-01T11:32:02;8.53;;;4.53;;
73672;SDS011;61972;19.480;-99.240;2023-02-01T11:34:40;6.25;;;4.50;;
73672;SDS011;61972;19.480;-99.240;2023-02-01T11:39:59;6.00;;;4.68;;
73672;SDS011;61972;19.480;-99.240;2023-02-01T11:42:29;6.00;;;4.10;;
73672;SDS011;61972;19.480;-99.240;2023-02-01T11:45:18;6.83;;;4.57;;
73672;SDS011;61972;19.480;-99.240;2023-02-01T11:47:46;8.02;;;4.22;;
73672;SDS011;61972;19.480;-99.240;2023-02-01T11:50:18;7.82;;;4.57;;
73672;SDS011;61972;19.480;-99.240;2023-02-01T11:53:02;7.20;;;4.90;;
73672;SDS011;61972;19.480;-99.240;2023-02-01T11:58:57;6.67;;;4.33;;
73672;SDS011;61972;19.480;-99.240;2023-02-01T12:15:16;5.68;;;3.70;;
73672;SDS011;61972;19.480;-99.240;2023-02-01T12:18:37;6.03;;;4.38;;
73672;SDS011;61972;19.480;-99.240;2023-02-01T12:21:06;6.63;;;3.85;;
73672;SDS011;61972;19.480;-99.240;2023-02-01T12:24:07;6.32;;;4.32;;
73672;SDS011;61972;19.480;-99.240;2023-02-01T12:26:58;6.60;;;3.57;;
73672;SDS011;61972;19.480;-99.240;2023-02-01T12:32:38;6.00;;;4.07;;
73672;SDS011;61972;19.480;-99.240;2023-02-01T12:35:44;5.63;;;3.70;;
73672;SDS011;61972;19.480;-99.240;2023-02-01T12:41:43;5.13;;;3.70;;
73672;SDS011;61972;19.480;-99.240;2023-02-01T12:44:30;6.28;;;4.18;;
73672;SDS011;61972;19.480;-99.240;2023-02-01T12:47:06;6.10;;;3.88;;
73672;SDS011;61972;19.480;-99.240;2023-02-01T12:49:53;5.32;;;3.85;;
73672;SDS011;61972;19.480;-99.240;2023-02-01T12:57:35;5.55;;;3.63;;
73672;SDS011;61972;19.480;-99.240;2023-02-01T13:05:19;9.88;;;3.90;;
73672;SDS011;61972;19.480;-99.240;2023-02-01T13:07:55;7.57;;;4.27;;
73672;SDS011;61972;19.480;-99.240;2023-02-01T13:10:57;10.20;;;4.82;;
73672;SDS011;61972;19.480;-99.240;2023-02-01T13:19:13;13.05;;;6.25;;
73672;SDS011;61972;19.480;-99.240;2023-02-01T13:25:11;15.68;;;6.82;;
73672;SDS011;61972;19.480;-99.240;2023-02-01T13:27:41;14.05;;;6.93;;
73672;SDS011;61972;19.480;-99.240;2023-02-01T13:30:18;11.75;;;6.70;;
73672;SDS011;61972;19.480;-99.240;2023-02-01T13:33:09;9.57;;;6.53;;
73672;SDS011;61972;19.480;-99.240;2023-02-01T13:35:57;11.23;;;6.77;;
73672;SDS011;61972;19.480;-99.240;2023-02-01T13:41:31;15.38;;;6.85;;
73672;SDS011;61972;19.480;-99.240;2023-02-01T13:44:16;11.40;;;6.90;;
73672;SDS011;61972;19.480;-99.240;2023-02-01T13:46:49;13.10;;;6.93;;
73672;SDS011;61972;19.480;-99.240;2023-02-01T13:49:20;10.77;;;7.00;;
73672;SDS011;61972;19.480;-99.240;2023-02-01T13:51:51;11.70;;;7.20;;
73672;SDS011;61972;19.480;-99.240;2023-02-01T13:56:52;12.85;;;6.97;;
73672;SDS011;61972;19.480;-99.240;2023-02-01T14:05:06;10.43;;;6.70;;
73672;SDS011;61972;19.480;-99.240;2023-02-01T14:08:02;11.88;;;6.90;;
73672;SDS011;61972;19.480;-99.240;2023-02-01T14:13:13;10.57;;;6.78;;
73672;SDS011;61972;19.480;-99.240;2023-02-01T14:21:18;13.13;;;7.10;;
73672;SDS011;61972;19.480;-99.240;2023-02-01T14:23:54;9.93;;;7.00;;
73672;SDS011;61972;19.480;-99.240;2023-02-01T14:29:15;12.70;;;6.80;;
73672;SDS011;61972;19.480;-99.240;2023-02-01T14:32:03;10.73;;;6.60;;
73672;SDS011;61972;19.480;-99.240;2023-02-01T14:44:47;11.70;;;6.63;;
73672;SDS011;61972;19.480;-99.240;2023-02-01T14:49:54;10.97;;;6.70;;
73672;SDS011;61972;19.480;-99.240;2023-02-01T14:52:28;10.82;;;6.97;;
73672;SDS011;61972;19.480;-99.240;2023-02-01T14:55:01;10.70;;;7.22;;
73672;SDS011;61972;19.480;-99.240;2023-02-01T14:57:31;10.85;;;6.88;;
73672;SDS011;61972;19.480;-99.240;2023-02-01T15:00:34;10.23;;;6.72;;
73672;SDS011;61972;19.480;-99.240;2023-02-01T15:03:00;11.70;;;6.60;;
73672;SDS011;61972;19.480;-99.240;2023-02-01T15:05:54;10.18;;;6.50;;
73672;SDS011;61972;19.480;-99.240;2023-02-01T15:08:26;12.02;;;7.50;;
73672;SDS011;61972;19.480;-99.240;2023-02-01T15:10:55;14.00;;;6.82;;
73672;SDS011;61972;19.480;-99.240;2023-02-01T15:13:26;11.07;;;7.20;;
73672;SDS011;61972;19.480;-99.240;2023-02-01T15:16:13;12.97;;;7.43;;
73672;SDS011;61972;19.480;-99.240;2023-02-01T15:18:41;13.18;;;7.50;;
73672;SDS011;61972;19.480;-99.240;2023-02-01T15:21:14;13.25;;;7.93;;
73672;SDS011;61972;19.480;-99.240;2023-02-01T15:23:45;11.90;;;7.20;;
73672;SDS011;61972;19.480;-99.240;2023-02-01T15:26:26;11.10;;;7.00;;
73672;SDS011;61972;19.480;-99.240;2023-02-01T15:28:55;11.53;;;7.03;;
73672;SDS011;61972;19.480;-99.240;2023-02-01T15:31:33;14.80;;;7.65;;
73672;SDS011;61972;19.480;-99.240;2023-02-01T15:34:04;11.25;;;7.30;;
73672;SDS011;61972;19.480;-99.240;2023-02-01T15:36:30;13.35;;;7.72;;
73672;SDS011;61972;19.480;-99.240;2023-02-01T15:41:55;14.17;;;9.00;;
73672;SDS011;61972;19.480;-99.240;2023-02-01T15:46:59;17.35;;;11.15;;
73672;SDS011;61972;19.480;-99.240;2023-02-01T15:49:36;19.80;;;11.88;;
73672;SDS011;61972;19.480;-99.240;2023-02-01T15:52:10;23.20;;;13.50;;
73672;SDS011;61972;19.480;-99.240;2023-02-01T15:54:56;26.57;;;14.13;;
73672;SDS011;61972;19.480;-99.240;2023-02-01T15:57:26;26.67;;;15.32;;
73672;SDS011;61972;19.480;-99.240;2023-02-01T15:59:56;27.58;;;15.55;;
73672;SDS011;61972;19.480;-99.240;2023-02-01T16:08:16;31.20;;;16.70;;
73672;SDS011;61972;19.480;-99.240;2023-02-01T16:10:48;34.72;;;18.58;;
73672;SDS011;61972;19.480;-99.240;2023-02-01T16:13:17;33.20;;;19.50;;
73672;SDS011;61972;19.480;-99.240;2023-02-01T16:15:45;34.97;;;19.35;;
73672;SDS011;61972;19.480;-99.240;2023-02-01T16:18:12;31.63;;;18.92;;
73672;SDS011;61972;19.480;-99.240;2023-02-01T16:20:39;30.77;;;19.63;;
73672;SDS011;61972;19.480;-99.240;2023-02-01T16:23:06;33.05;;;20.30;;
73672;SDS011;61972;19.480;-99.240;2023-02-01T16:25:33;36.58;;;21.13;;
73672;SDS011;61972;19.480;-99.240;2023-02-01T16:28:00;36.90;;;20.98;;
73672;SDS011;61972;19.480;-99.240;2023-02-01T16:30:26;31.75;;;20.30;;
73672;SDS011;61972;19.480;-99.240;2023-02-01T16:32:55;33.77;;;20.60;;
73672;SDS011;61972;19.480;-99.240;2023-02-01T16:37:51;37.03;;;22.70;;
73672;SDS011;61972;19.480;-99.240;2023-02-01T16:40:17;34.40;;;21.73;;
73672;SDS011;61972;19.480;-99.240;2023-02-01T16:42:45;38.38;;;23.17;;
73672;SDS011;61972;19.480;-99.240;2023-02-01T16:45:13;35.77;;;22.43;;
73672;SDS011;61972;19.480;-99.240;2023-02-01T16:47:40;40.38;;;23.55;;
73672;SDS011;61972;19.480;-99.240;2023-02-01T16:50:32;42.13;;;24.13;;
73672;SDS011;61972;19.480;-99.240;2023-02-01T16:52:57;38.95;;;24.25;;
73672;SDS011;61972;19.480;-99.240;2023-02-01T16:55:23;37.35;;;23.75;;
73672;SDS011;61972;19.480;-99.240;2023-02-01T16:57:51;44.40;;;24.30;;
73672;SDS011;61972;19.480;-99.240;2023-02-01T17:00:17;41.45;;;25.08;;
73672;SDS011;61972;19.480;-99.240;2023-02-01T17:02:45;41.03;;;25.67;;
73672;SDS011;61972;19.480;-99.240;2023-02-01T17:05:11;44.55;;;27.15;;
73672;SDS011;61972;19.480;-99.240;2023-02-01T17:07:38;43.20;;;25.52;;
73672;SDS011;61972;19.480;-99.240;2023-02-01T17:10:05;47.47;;;26.80;;
73672;SDS011;61972;19.480;-99.240;2023-02-01T17:12:42;47.25;;;27.58;;
73672;SDS011;61972;19.480;-99.240;2023-02-01T17:15:08;50.25;;;28.73;;
73672;SDS011;61972;19.480;-99.240;2023-02-01T17:17:36;45.45;;;28.00;;
73672;SDS011;61972;19.480;-99.240;2023-02-01T17:20:03;50.13;;;29.70;;